This is the latest recevied weather packets stored in our database for station/object OE6ATD-13. If no packets are shown the sender has not sent any weather packets the latest 10 day(s).
| Time | Temp. | Humidity | Pressure | Rain* | Wind** | Luminosity | Snow |
|---|---|---|---|---|---|---|---|
| 1778074517 | 22.78° C | 44% | 1008.4 hPa | 0 mm | - | 219 W/m² | - |
| 1778073928 | 22.78° C | 43% | 1008.3 hPa | 0 mm | - | 428 W/m² | - |
| 1778073323 | 23.33° C | 42% | 1008.4 hPa | 0 mm | - | 642 W/m² | - |
| 1778072720 | 23.89° C | 42% | 1008.4 hPa | 0 mm | - | 718 W/m² | - |
| 1778072115 | 23.33° C | 42% | 1008.4 hPa | 0 mm | - | 684 W/m² | - |
| 1778071525 | 23.89° C | 42% | 1008.5 hPa | 0 mm | - | 764 W/m² | - |
| 1778070921 | 23.89° C | 41% | 1008.5 hPa | 0 mm | - | 794 W/m² | - |
| 1778070316 | 23.89° C | 42% | 1008.5 hPa | 0 mm | - | 824 W/m² | - |
| 1778069727 | 23.89° C | 40% | 1008.6 hPa | 0 mm | - | 778 W/m² | - |
| 1778069123 | 24.44° C | 40% | 1008.7 hPa | 0 mm | - | 805 W/m² | - |
| 1778068519 | 24.44° C | 41% | 1008.6 hPa | 0 mm | - | 886 W/m² | - |
| 1778067930 | 23.33° C | 42% | 1008.6 hPa | 0 mm | - | 820 W/m² | - |
| 1778067326 | 22.78° C | 44% | 1008.5 hPa | 0 mm | - | 902 W/m² | - |
| 1778066722 | 21.67° C | 50% | 1008.7 hPa | 0 mm | - | 647 W/m² | - |
| 1778066117 | 21.67° C | 50% | 1009 hPa | 0 mm | - | 333 W/m² | - |
| 1778065529 | 21.11° C | 51% | 1009.1 hPa | 0 mm | - | 334 W/m² | - |
| 1778064924 | 21.11° C | 51% | 1009.2 hPa | 0 mm | - | 259 W/m² | - |
| 1778064326 | 21.11° C | 51% | 1009.3 hPa | 0 mm | - | 223 W/m² | - |
| 1778063722 | 20.56° C | 51% | 1009.3 hPa | 0 mm | - | 215 W/m² | - |
| 1778063118 | 20.56° C | 51% | 1009.5 hPa | 0 mm | - | 251 W/m² | - |
| 1778062529 | 20.56° C | 51% | 1009.5 hPa | 0 mm | - | 221 W/m² | - |
| 1778061925 | 20.56° C | 51% | 1009.6 hPa | 0 mm | - | 192 W/m² | - |
| 1778061321 | 21.11° C | 50% | 1009.6 hPa | 0 mm | - | 186 W/m² | - |
| 1778060723 | 20.56° C | 50% | 1009.6 hPa | 0 mm | - | 180 W/m² | - |
| 1778060119 | 22.22° C | 44% | 1009.4 hPa | 0 mm | - | 144 W/m² | - |
* Rain latest hour (hover to see other rain measurements)
** Current wind speed in m/s (hover to see current wind gust speed)